sensor_id;sensor_type;location;lat;lon;timestamp;pressure;altitude;pressure_sealevel;temperature;humidity
57948;BME280;43754;56.992;24.292;2022-09-06T00:00:28;102740.06;;;8.58;100.00
57948;BME280;43754;56.992;24.292;2022-09-06T00:03:02;102747.47;;;8.55;100.00
57948;BME280;43754;56.992;24.292;2022-09-06T00:05:36;102746.09;;;8.49;100.00
57948;BME280;43754;56.992;24.292;2022-09-06T00:08:08;102743.06;;;8.43;100.00
57948;BME280;43754;56.992;24.292;2022-09-06T00:10:40;102745.84;;;8.41;100.00
57948;BME280;43754;56.992;24.292;2022-09-06T00:13:16;102737.31;;;8.36;100.00
57948;BME280;43754;56.992;24.292;2022-09-06T00:15:48;102746.44;;;8.34;100.00
57948;BME280;43754;56.992;24.292;2022-09-06T00:18:21;102748.66;;;8.27;100.00
57948;BME280;43754;56.992;24.292;2022-09-06T00:20:54;102740.78;;;8.25;100.00
57948;BME280;43754;56.992;24.292;2022-09-06T00:23:26;102744.41;;;8.24;100.00
57948;BME280;43754;56.992;24.292;2022-09-06T00:26:02;102746.47;;;8.21;100.00
57948;BME280;43754;56.992;24.292;2022-09-06T00:28:35;102744.66;;;8.21;100.00
57948;BME280;43754;56.992;24.292;2022-09-06T00:31:08;102749.00;;;8.22;100.00
57948;BME280;43754;56.992;24.292;2022-09-06T00:33:43;102746.94;;;8.15;100.00
57948;BME280;43754;56.992;24.292;2022-09-06T00:36:15;102746.03;;;8.03;100.00
57948;BME280;43754;56.992;24.292;2022-09-06T00:38:48;102745.69;;;8.08;100.00
57948;BME280;43754;56.992;24.292;2022-09-06T00:41:20;102758.59;;;8.14;100.00
57948;BME280;43754;56.992;24.292;2022-09-06T00:43:52;102751.53;;;8.13;100.00
57948;BME280;43754;56.992;24.292;2022-09-06T00:46:26;102752.16;;;8.16;100.00
57948;BME280;43754;56.992;24.292;2022-09-06T00:49:03;102744.66;;;8.21;100.00
57948;BME280;43754;56.992;24.292;2022-09-06T00:51:37;102750.63;;;8.25;100.00
57948;BME280;43754;56.992;24.292;2022-09-06T00:54:10;102745.91;;;8.28;100.00
57948;BME280;43754;56.992;24.292;2022-09-06T00:56:43;102746.44;;;8.34;100.00
57948;BME280;43754;56.992;24.292;2022-09-06T00:59:16;102740.22;;;8.33;100.00
57948;BME280;43754;56.992;24.292;2022-09-06T01:01:48;102744.00;;;8.30;100.00
57948;BME280;43754;56.992;24.292;2022-09-06T01:04:22;102741.38;;;8.18;100.00
57948;BME280;43754;56.992;24.292;2022-09-06T01:07:02;102746.72;;;8.18;100.00
57948;BME280;43754;56.992;24.292;2022-09-06T01:09:51;102739.91;;;8.14;100.00
57948;BME280;43754;56.992;24.292;2022-09-06T01:12:37;102741.13;;;8.21;100.00
57948;BME280;43754;56.992;24.292;2022-09-06T01:15:22;102737.25;;;8.25;100.00
57948;BME280;43754;56.992;24.292;2022-09-06T01:18:05;102736.16;;;8.27;100.00
57948;BME280;43754;56.992;24.292;2022-09-06T01:20:47;102738.22;;;8.24;100.00
57948;BME280;43754;56.992;24.292;2022-09-06T01:29:36;102736.94;;;8.29;100.00
57948;BME280;43754;56.992;24.292;2022-09-06T01:32:16;102735.31;;;8.27;100.00
57948;BME280;43754;56.992;24.292;2022-09-06T01:34:55;102733.41;;;8.29;100.00
57948;BME280;43754;56.992;24.292;2022-09-06T01:37:29;102733.31;;;8.30;100.00
57948;BME280;43754;56.992;24.292;2022-09-06T01:40:01;102732.25;;;8.20;100.00
57948;BME280;43754;56.992;24.292;2022-09-06T01:42:34;102733.81;;;8.12;100.00
57948;BME280;43754;56.992;24.292;2022-09-06T01:45:11;102731.03;;;8.13;100.00
57948;BME280;43754;56.992;24.292;2022-09-06T01:47:52;102728.22;;;8.15;100.00
57948;BME280;43754;56.992;24.292;2022-09-06T01:50:54;102731.66;;;8.17;100.00
57948;BME280;43754;56.992;24.292;2022-09-06T01:53:39;102729.59;;;8.20;100.00
57948;BME280;43754;56.992;24.292;2022-09-06T01:56:22;102732.25;;;8.20;100.00
57948;BME280;43754;56.992;24.292;2022-09-06T01:59:05;102724.50;;;8.17;100.00
57948;BME280;43754;56.992;24.292;2022-09-06T02:01:48;102721.41;;;8.11;100.00
57948;BME280;43754;56.992;24.292;2022-09-06T02:04:25;102717.75;;;8.01;100.00
57948;BME280;43754;56.992;24.292;2022-09-06T02:07:02;102722.69;;;7.94;100.00
57948;BME280;43754;56.992;24.292;2022-09-06T02:09:40;102721.06;;;7.80;100.00
57948;BME280;43754;56.992;24.292;2022-09-06T02:12:16;102725.78;;;7.64;100.00
57948;BME280;43754;56.992;24.292;2022-09-06T02:14:52;102729.25;;;7.54;100.00
57948;BME280;43754;56.992;24.292;2022-09-06T02:17:31;102726.50;;;7.55;100.00
57948;BME280;43754;56.992;24.292;2022-09-06T02:20:07;102727.13;;;7.59;100.00
57948;BME280;43754;56.992;24.292;2022-09-06T02:22:42;102733.94;;;7.63;100.00
57948;BME280;43754;56.992;24.292;2022-09-06T02:25:20;102729.56;;;7.62;100.00
57948;BME280;43754;56.992;24.292;2022-09-06T02:27:54;102727.84;;;7.61;100.00
57948;BME280;43754;56.992;24.292;2022-09-06T02:30:26;102730.84;;;7.56;100.00
57948;BME280;43754;56.992;24.292;2022-09-06T02:33:03;102727.78;;;7.50;100.00
57948;BME280;43754;56.992;24.292;2022-09-06T02:35:41;102734.31;;;7.46;100.00
57948;BME280;43754;56.992;24.292;2022-09-06T02:38:15;102727.25;;;7.45;100.00
57948;BME280;43754;56.992;24.292;2022-09-06T02:40:47;102729.94;;;7.45;100.00
57948;BME280;43754;56.992;24.292;2022-09-06T02:43:20;102729.19;;;7.43;100.00
57948;BME280;43754;56.992;24.292;2022-09-06T02:45:52;102735.50;;;7.42;100.00
57948;BME280;43754;56.992;24.292;2022-09-06T02:48:26;102736.44;;;7.40;100.00
57948;BME280;43754;56.992;24.292;2022-09-06T02:51:01;102730.25;;;7.40;100.00
57948;BME280;43754;56.992;24.292;2022-09-06T02:53:34;102730.38;;;7.38;100.00
57948;BME280;43754;56.992;24.292;2022-09-06T02:56:06;102727.91;;;7.35;100.00
57948;BME280;43754;56.992;24.292;2022-09-06T02:58:38;102726.66;;;7.28;100.00
57948;BME280;43754;56.992;24.292;2022-09-06T03:01:10;102727.75;;;7.26;100.00
57948;BME280;43754;56.992;24.292;2022-09-06T03:03:44;102723.69;;;7.20;100.00
57948;BME280;43754;56.992;24.292;2022-09-06T03:06:17;102722.53;;;7.12;100.00
57948;BME280;43754;56.992;24.292;2022-09-06T03:08:49;102727.34;;;7.07;100.00
57948;BME280;43754;56.992;24.292;2022-09-06T03:11:21;102736.50;;;7.03;100.00
57948;BME280;43754;56.992;24.292;2022-09-06T03:13:53;102726.31;;;6.97;100.00
57948;BME280;43754;56.992;24.292;2022-09-06T03:16:25;102730.56;;;6.86;100.00
57948;BME280;43754;56.992;24.292;2022-09-06T03:18:59;102729.28;;;6.92;100.00
57948;BME280;43754;56.992;24.292;2022-09-06T03:21:31;102727.25;;;6.96;100.00
57948;BME280;43754;56.992;24.292;2022-09-06T03:24:04;102730.13;;;6.92;100.00
57948;BME280;43754;56.992;24.292;2022-09-06T03:26:36;102732.16;;;6.76;100.00
57948;BME280;43754;56.992;24.292;2022-09-06T03:29:08;102729.06;;;6.70;100.00
57948;BME280;43754;56.992;24.292;2022-09-06T03:31:40;102722.56;;;6.74;100.00
57948;BME280;43754;56.992;24.292;2022-09-06T03:34:13;102723.31;;;6.76;100.00
57948;BME280;43754;56.992;24.292;2022-09-06T03:36:45;102731.00;;;6.80;100.00
57948;BME280;43754;56.992;24.292;2022-09-06T03:39:17;102731.81;;;6.81;100.00
57948;BME280;43754;56.992;24.292;2022-09-06T03:41:50;102731.31;;;6.76;100.00
57948;BME280;43754;56.992;24.292;2022-09-06T03:44:22;102731.19;;;6.77;100.00
57948;BME280;43754;56.992;24.292;2022-09-06T03:46:54;102729.94;;;6.83;100.00
57948;BME280;43754;56.992;24.292;2022-09-06T03:49:27;102732.38;;;6.86;100.00
57948;BME280;43754;56.992;24.292;2022-09-06T03:51:59;102723.31;;;6.88;100.00
57948;BME280;43754;56.992;24.292;2022-09-06T03:54:32;102729.38;;;6.90;100.00
57948;BME280;43754;56.992;24.292;2022-09-06T03:57:04;102727.56;;;6.78;100.00
57948;BME280;43754;56.992;24.292;2022-09-06T03:59:36;102726.81;;;6.76;100.00
57948;BME280;43754;56.992;24.292;2022-09-06T04:02:08;102730.88;;;6.69;100.00
57948;BME280;43754;56.992;24.292;2022-09-06T04:04:41;102731.31;;;6.63;100.00
57948;BME280;43754;56.992;24.292;2022-09-06T04:07:14;102728.63;;;6.51;100.00
57948;BME280;43754;56.992;24.292;2022-09-06T04:09:45;102728.19;;;6.57;100.00
57948;BME280;43754;56.992;24.292;2022-09-06T04:12:18;102724.59;;;6.58;100.00
57948;BME280;43754;56.992;24.292;2022-09-06T04:14:50;102730.66;;;6.60;100.00
57948;BME280;43754;56.992;24.292;2022-09-06T04:17:22;102726.19;;;6.60;100.00
57948;BME280;43754;56.992;24.292;2022-09-06T04:19:55;102731.41;;;6.62;100.00
57948;BME280;43754;56.992;24.292;2022-09-06T04:22:27;102731.31;;;6.63;100.00
57948;BME280;43754;56.992;24.292;2022-09-06T04:24:59;102720.97;;;6.59;100.00
57948;BME280;43754;56.992;24.292;2022-09-06T04:27:32;102722.47;;;6.63;100.00
57948;BME280;43754;56.992;24.292;2022-09-06T04:30:05;102718.84;;;6.64;100.00
57948;BME280;43754;56.992;24.292;2022-09-06T04:32:38;102715.41;;;6.62;100.00
57948;BME280;43754;56.992;24.292;2022-09-06T04:35:11;102708.50;;;6.59;100.00
57948;BME280;43754;56.992;24.292;2022-09-06T04:37:44;102698.16;;;6.55;100.00
57948;BME280;43754;56.992;24.292;2022-09-06T04:40:16;102708.59;;;6.58;100.00
57948;BME280;43754;56.992;24.292;2022-09-06T04:42:48;102699.66;;;6.59;100.00
57948;BME280;43754;56.992;24.292;2022-09-06T04:45:20;102700.19;;;6.64;100.00
57948;BME280;43754;56.992;24.292;2022-09-06T04:47:52;102699.84;;;6.68;100.00
57948;BME280;43754;56.992;24.292;2022-09-06T04:50:25;102700.94;;;6.78;100.00
57948;BME280;43754;56.992;24.292;2022-09-06T04:53:08;102706.66;;;6.85;100.00
57948;BME280;43754;56.992;24.292;2022-09-06T04:55:41;102709.56;;;6.82;100.00
57948;BME280;43754;56.992;24.292;2022-09-06T04:58:13;102709.47;;;6.83;100.00
57948;BME280;43754;56.992;24.292;2022-09-06T05:00:45;102706.25;;;6.91;100.00
57948;BME280;43754;56.992;24.292;2022-09-06T05:03:18;102709.88;;;6.90;100.00
57948;BME280;43754;56.992;24.292;2022-09-06T05:05:52;102706.03;;;6.94;100.00
57948;BME280;43754;56.992;24.292;2022-09-06T05:08:35;102711.25;;;7.08;100.00
57948;BME280;43754;56.992;24.292;2022-09-06T05:11:08;102700.94;;;7.27;100.00
57948;BME280;43754;56.992;24.292;2022-09-06T05:13:40;102701.22;;;7.72;100.00
57948;BME280;43754;56.992;24.292;2022-09-06T05:16:13;102705.31;;;8.23;100.00
57948;BME280;43754;56.992;24.292;2022-09-06T05:18:45;102708.03;;;8.81;100.00
57948;BME280;43754;56.992;24.292;2022-09-06T05:21:19;102701.16;;;9.32;100.00
57948;BME280;43754;56.992;24.292;2022-09-06T05:23:51;102705.66;;;9.86;98.39
57948;BME280;43754;56.992;24.292;2022-09-06T05:26:29;102700.44;;;10.16;96.08
57948;BME280;43754;56.992;24.292;2022-09-06T05:29:01;102697.94;;;10.35;95.31
57948;BME280;43754;56.992;24.292;2022-09-06T05:31:34;102705.03;;;10.46;95.79
57948;BME280;43754;56.992;24.292;2022-09-06T05:34:06;102701.31;;;10.58;94.20
57948;BME280;43754;56.992;24.292;2022-09-06T05:36:39;102697.09;;;10.65;94.61
57948;BME280;43754;56.992;24.292;2022-09-06T05:39:12;102707.97;;;10.64;96.73
57948;BME280;43754;56.992;24.292;2022-09-06T05:41:44;102706.06;;;10.75;96.92
57948;BME280;43754;56.992;24.292;2022-09-06T05:44:16;102707.50;;;10.79;95.62
57948;BME280;43754;56.992;24.292;2022-09-06T05:46:49;102703.94;;;10.79;95.92
57948;BME280;43754;56.992;24.292;2022-09-06T05:49:21;102710.81;;;10.92;94.46
57948;BME280;43754;56.992;24.292;2022-09-06T05:51:54;102702.00;;;11.21;89.17
57948;BME280;43754;56.992;24.292;2022-09-06T05:54:26;102692.47;;;11.57;87.33
57948;BME280;43754;56.992;24.292;2022-09-06T05:56:58;102693.28;;;11.97;84.27
57948;BME280;43754;56.992;24.292;2022-09-06T05:59:30;102688.28;;;12.40;81.40
57948;BME280;43754;56.992;24.292;2022-09-06T06:02:02;102692.75;;;12.69;81.44
57948;BME280;43754;56.992;24.292;2022-09-06T06:04:38;102689.22;;;12.68;78.75
57948;BME280;43754;56.992;24.292;2022-09-06T06:07:11;102691.19;;;12.66;79.11
57948;BME280;43754;56.992;24.292;2022-09-06T06:09:43;102689.00;;;12.89;79.31
57948;BME280;43754;56.992;24.292;2022-09-06T06:12:15;102691.19;;;13.13;78.84
57948;BME280;43754;56.992;24.292;2022-09-06T06:14:47;102679.94;;;13.27;77.52
57948;BME280;43754;56.992;24.292;2022-09-06T06:17:19;102681.16;;;13.32;78.25
57948;BME280;43754;56.992;24.292;2022-09-06T06:19:51;102682.22;;;13.67;77.09
57948;BME280;43754;56.992;24.292;2022-09-06T06:22:25;102672.28;;;13.85;74.33
57948;BME280;43754;56.992;24.292;2022-09-06T06:24:57;102678.28;;;13.97;73.24
57948;BME280;43754;56.992;24.292;2022-09-06T06:27:29;102683.34;;;13.82;73.02
57948;BME280;43754;56.992;24.292;2022-09-06T06:30:02;102681.53;;;14.00;70.40
57948;BME280;43754;56.992;24.292;2022-09-06T06:32:35;102679.88;;;14.25;68.37
57948;BME280;43754;56.992;24.292;2022-09-06T06:35:08;102678.22;;;14.50;64.90
57948;BME280;43754;56.992;24.292;2022-09-06T06:37:42;102685.13;;;14.44;64.92
57948;BME280;43754;56.992;24.292;2022-09-06T06:40:15;102681.19;;;14.39;64.44
57948;BME280;43754;56.992;24.292;2022-09-06T06:42:47;102676.84;;;14.28;63.99
57948;BME280;43754;56.992;24.292;2022-09-06T06:45:19;102676.44;;;14.15;64.93
57948;BME280;43754;56.992;24.292;2022-09-06T06:47:52;102675.72;;;14.13;65.25
57948;BME280;43754;56.992;24.292;2022-09-06T06:50:24;102685.19;;;14.17;65.05
57948;BME280;43754;56.992;24.292;2022-09-06T06:52:58;102684.22;;;14.36;63.54
57948;BME280;43754;56.992;24.292;2022-09-06T06:55:30;102691.28;;;14.37;64.71
57948;BME280;43754;56.992;24.292;2022-09-06T06:58:02;102683.16;;;14.11;65.59
57948;BME280;43754;56.992;24.292;2022-09-06T07:00:34;102684.22;;;14.18;65.64
57948;BME280;43754;56.992;24.292;2022-09-06T07:03:06;102682.63;;;14.51;64.32
57948;BME280;43754;56.992;24.292;2022-09-06T07:05:39;102688.66;;;14.70;64.04
57948;BME280;43754;56.992;24.292;2022-09-06T07:08:35;102692.28;;;14.87;63.80
57948;BME280;43754;56.992;24.292;2022-09-06T07:11:12;102681.88;;;14.66;65.10
57948;BME280;43754;56.992;24.292;2022-09-06T07:13:45;102681.41;;;14.71;64.53
57948;BME280;43754;56.992;24.292;2022-09-06T07:16:18;102682.19;;;14.89;65.23
57948;BME280;43754;56.992;24.292;2022-09-06T07:18:52;102681.75;;;15.02;63.99
57948;BME280;43754;56.992;24.292;2022-09-06T07:21:24;102674.91;;;15.24;62.61
57948;BME280;43754;56.992;24.292;2022-09-06T07:24:14;102677.34;;;15.43;62.89
57948;BME280;43754;56.992;24.292;2022-09-06T07:26:46;102676.84;;;15.47;62.78
57948;BME280;43754;56.992;24.292;2022-09-06T07:29:38;102679.69;;;15.38;60.62
57948;BME280;43754;56.992;24.292;2022-09-06T07:32:10;102676.19;;;15.53;60.91
57948;BME280;43754;56.992;24.292;2022-09-06T07:34:43;102679.78;;;15.62;59.71
57948;BME280;43754;56.992;24.292;2022-09-06T07:37:16;102678.47;;;15.90;58.83
57948;BME280;43754;56.992;24.292;2022-09-06T07:39:49;102674.59;;;16.09;58.49
57948;BME280;43754;56.992;24.292;2022-09-06T07:42:21;102663.06;;;15.99;56.28
57948;BME280;43754;56.992;24.292;2022-09-06T07:44:53;102674.06;;;16.30;56.95
57948;BME280;43754;56.992;24.292;2022-09-06T07:47:28;102668.47;;;16.55;56.74
57948;BME280;43754;56.992;24.292;2022-09-06T07:50:20;102670.34;;;16.39;54.09
57948;BME280;43754;56.992;24.292;2022-09-06T07:53:12;102668.47;;;16.47;54.22
57948;BME280;43754;56.992;24.292;2022-09-06T07:55:53;102665.22;;;16.76;52.73
57948;BME280;43754;56.992;24.292;2022-09-06T07:58:27;102662.69;;;16.67;53.20
57948;BME280;43754;56.992;24.292;2022-09-06T08:01:25;102671.88;;;16.25;51.90
57948;BME280;43754;56.992;24.292;2022-09-06T08:04:00;102667.81;;;16.29;52.06
57948;BME280;43754;56.992;24.292;2022-09-06T08:06:34;102661.88;;;16.42;53.09
57948;BME280;43754;56.992;24.292;2022-09-06T08:09:26;102676.16;;;16.99;53.62
57948;BME280;43754;56.992;24.292;2022-09-06T08:12:00;102661.22;;;17.11;51.35
57948;BME280;43754;56.992;24.292;2022-09-06T08:14:37;102669.16;;;17.13;52.25
57948;BME280;43754;56.992;24.292;2022-09-06T08:17:09;102658.09;;;16.75;51.83
57948;BME280;43754;56.992;24.292;2022-09-06T08:19:42;102658.88;;;17.00;51.74
57948;BME280;43754;56.992;24.292;2022-09-06T08:22:14;102650.56;;;17.40;48.54
57948;BME280;43754;56.992;24.292;2022-09-06T08:24:46;102645.34;;;16.92;48.78
57948;BME280;43754;56.992;24.292;2022-09-06T08:27:20;102655.72;;;16.80;49.97
57948;BME280;43754;56.992;24.292;2022-09-06T08:29:52;102646.56;;;16.89;49.14
57948;BME280;43754;56.992;24.292;2022-09-06T08:32:24;102638.00;;;17.09;47.66
57948;BME280;43754;56.992;24.292;2022-09-06T08:34:57;102639.78;;;17.24;48.83
57948;BME280;43754;56.992;24.292;2022-09-06T08:37:29;102649.31;;;16.81;48.49
57948;BME280;43754;56.992;24.292;2022-09-06T08:40:02;102641.41;;;16.64;50.24
57948;BME280;43754;56.992;24.292;2022-09-06T08:42:37;102632.06;;;17.13;48.72
57948;BME280;43754;56.992;24.292;2022-09-06T08:45:14;102633.56;;;17.46;47.91
57948;BME280;43754;56.992;24.292;2022-09-06T08:47:49;102632.28;;;17.88;49.46
57948;BME280;43754;56.992;24.292;2022-09-06T08:50:26;102628.06;;;17.63;49.90
57948;BME280;43754;56.992;24.292;2022-09-06T08:53:01;102623.69;;;17.54;48.93
57948;BME280;43754;56.992;24.292;2022-09-06T08:55:51;102612.16;;;17.29;51.29
57948;BME280;43754;56.992;24.292;2022-09-06T08:58:36;102615.19;;;17.65;50.55
57948;BME280;43754;56.992;24.292;2022-09-06T09:01:16;102610.06;;;17.70;52.34
57948;BME280;43754;56.992;24.292;2022-09-06T09:03:50;102601.31;;;17.60;50.83
57948;BME280;43754;56.992;24.292;2022-09-06T09:06:24;102603.16;;;17.59;50.81
57948;BME280;43754;56.992;24.292;2022-09-06T09:09:02;102601.75;;;17.40;51.46
57948;BME280;43754;56.992;24.292;2022-09-06T09:11:35;102599.53;;;17.13;51.23
57948;BME280;43754;56.992;24.292;2022-09-06T09:14:15;102598.00;;;17.19;52.67
57948;BME280;43754;56.992;24.292;2022-09-06T09:16:49;102589.91;;;17.11;51.55
57948;BME280;43754;56.992;24.292;2022-09-06T09:19:22;102590.56;;;16.82;51.73
57948;BME280;43754;56.992;24.292;2022-09-06T09:21:54;102582.44;;;16.82;52.16
57948;BME280;43754;56.992;24.292;2022-09-06T09:24:26;102581.16;;;17.00;52.72
57948;BME280;43754;56.992;24.292;2022-09-06T09:27:04;102590.41;;;17.14;51.70
57948;BME280;43754;56.992;24.292;2022-09-06T09:29:55;102585.13;;;17.13;52.13
57948;BME280;43754;56.992;24.292;2022-09-06T09:32:48;102580.75;;;17.12;53.84
57948;BME280;43754;56.992;24.292;2022-09-06T09:35:26;102574.03;;;16.99;53.03
57948;BME280;43754;56.992;24.292;2022-09-06T09:38:05;102576.81;;;16.83;55.24
57948;BME280;43754;56.992;24.292;2022-09-06T09:40:49;102580.59;;;16.82;55.89
57948;BME280;43754;56.992;24.292;2022-09-06T09:43:23;102581.56;;;16.89;56.21
57948;BME280;43754;56.992;24.292;2022-09-06T09:46:15;102577.06;;;17.05;57.12
57948;BME280;43754;56.992;24.292;2022-09-06T09:49:00;102571.16;;;17.01;57.50
57948;BME280;43754;56.992;24.292;2022-09-06T09:51:34;102573.03;;;17.00;56.71
57948;BME280;43754;56.992;24.292;2022-09-06T09:54:08;102567.75;;;17.07;56.68
57948;BME280;43754;56.992;24.292;2022-09-06T09:56:44;102565.47;;;16.88;57.52
57948;BME280;43754;56.992;24.292;2022-09-06T09:59:20;102564.81;;;16.86;58.02
57948;BME280;43754;56.992;24.292;2022-09-06T10:01:55;102572.25;;;16.84;58.25
57948;BME280;43754;56.992;24.292;2022-09-06T10:04:30;102574.41;;;16.41;59.09
57948;BME280;43754;56.992;24.292;2022-09-06T10:07:19;102573.59;;;16.33;59.55
57948;BME280;43754;56.992;24.292;2022-09-06T10:09:57;102568.69;;;16.28;59.59
57948;BME280;43754;56.992;24.292;2022-09-06T10:12:33;102570.88;;;16.33;60.19
57948;BME280;43754;56.992;24.292;2022-09-06T10:15:07;102571.94;;;16.24;60.00
57948;BME280;43754;56.992;24.292;2022-09-06T10:17:49;102571.41;;;16.20;59.91
57948;BME280;43754;56.992;24.292;2022-09-06T10:20:24;102567.34;;;16.40;61.24
57948;BME280;43754;56.992;24.292;2022-09-06T10:23:05;102556.66;;;16.94;59.90
57948;BME280;43754;56.992;24.292;2022-09-06T10:25:44;102554.63;;;17.19;58.02
57948;BME280;43754;56.992;24.292;2022-09-06T10:28:38;102557.69;;;16.85;58.02
57948;BME280;43754;56.992;24.292;2022-09-06T10:31:31;102560.56;;;16.44;58.69
57948;BME280;43754;56.992;24.292;2022-09-06T10:34:30;102566.66;;;16.30;59.91
57948;BME280;43754;56.992;24.292;2022-09-06T10:37:14;102563.31;;;16.12;59.27
57948;BME280;43754;56.992;24.292;2022-09-06T10:39:54;102556.03;;;16.21;59.27
57948;BME280;43754;56.992;24.292;2022-09-06T10:42:32;102548.00;;;16.60;57.95
57948;BME280;43754;56.992;24.292;2022-09-06T10:45:22;102553.56;;;16.50;58.05
57948;BME280;43754;56.992;24.292;2022-09-06T10:47:59;102550.28;;;16.32;58.14
57948;BME280;43754;56.992;24.292;2022-09-06T10:50:41;102552.69;;;16.10;58.08
57948;BME280;43754;56.992;24.292;2022-09-06T10:53:28;102546.81;;;15.58;59.40
57948;BME280;43754;56.992;24.292;2022-09-06T10:56:05;102550.19;;;15.93;59.80
57948;BME280;43754;56.992;24.292;2022-09-06T10:58:44;102540.31;;;16.16;58.88
57948;BME280;43754;56.992;24.292;2022-09-06T11:01:39;102542.31;;;16.30;58.34
57948;BME280;43754;56.992;24.292;2022-09-06T11:04:26;102540.31;;;16.16;58.33
57948;BME280;43754;56.992;24.292;2022-09-06T11:07:04;102536.97;;;16.14;57.76
57948;BME280;43754;56.992;24.292;2022-09-06T11:09:44;102533.88;;;16.25;57.70
57948;BME280;43754;56.992;24.292;2022-09-06T11:12:26;102522.03;;;17.04;55.53
57948;BME280;43754;56.992;24.292;2022-09-06T11:15:05;102521.28;;;17.78;54.40
57948;BME280;43754;56.992;24.292;2022-09-06T11:17:42;102514.34;;;18.28;50.86
57948;BME280;43754;56.992;24.292;2022-09-06T11:20:23;102511.50;;;18.80;51.70
57948;BME280;43754;56.992;24.292;2022-09-06T11:26:33;102514.53;;;18.92;48.41
57948;BME280;43754;56.992;24.292;2022-09-06T11:29:08;102514.13;;;19.09;46.39
57948;BME280;43754;56.992;24.292;2022-09-06T11:31:50;102509.47;;;19.03;45.54
57948;BME280;43754;56.992;24.292;2022-09-06T11:34:50;102499.91;;;19.07;46.11
57948;BME280;43754;56.992;24.292;2022-09-06T11:37:26;102504.41;;;19.00;46.87
57948;BME280;43754;56.992;24.292;2022-09-06T11:40:05;102507.81;;;18.88;46.62
57948;BME280;43754;56.992;24.292;2022-09-06T11:43:17;102511.59;;;18.87;45.90
57948;BME280;43754;56.992;24.292;2022-09-06T11:46:09;102512.47;;;18.43;46.45
57948;BME280;43754;56.992;24.292;2022-09-06T11:48:49;102512.81;;;17.96;48.00
57948;BME280;43754;56.992;24.292;2022-09-06T11:51:34;102501.69;;;18.20;47.63
57948;BME280;43754;56.992;24.292;2022-09-06T11:54:21;102500.38;;;18.46;48.75
57948;BME280;43754;56.992;24.292;2022-09-06T11:56:58;102498.38;;;18.83;47.02
57948;BME280;43754;56.992;24.292;2022-09-06T11:59:41;102496.59;;;19.12;46.79
57948;BME280;43754;56.992;24.292;2022-09-06T12:02:35;102499.31;;;19.12;47.42
57948;BME280;43754;56.992;24.292;2022-09-06T12:05:16;102489.31;;;18.76;46.12
57948;BME280;43754;56.992;24.292;2022-09-06T12:11:02;102489.16;;;18.49;46.32
57948;BME280;43754;56.992;24.292;2022-09-06T12:13:47;102482.78;;;18.42;46.88
57948;BME280;43754;56.992;24.292;2022-09-06T12:16:22;102486.53;;;18.41;47.68
57948;BME280;43754;56.992;24.292;2022-09-06T12:18:57;102485.16;;;18.15;47.17
57948;BME280;43754;56.992;24.292;2022-09-06T12:21:44;102479.72;;;18.15;46.30
57948;BME280;43754;56.992;24.292;2022-09-06T12:24:50;102471.94;;;18.12;48.43
57948;BME280;43754;56.992;24.292;2022-09-06T12:27:24;102479.13;;;17.76;48.13
57948;BME280;43754;56.992;24.292;2022-09-06T12:29:59;102476.63;;;17.52;47.93
57948;BME280;43754;56.992;24.292;2022-09-06T12:32:35;102481.88;;;17.53;48.49
57948;BME280;43754;56.992;24.292;2022-09-06T12:35:13;102469.09;;;17.39;49.27
57948;BME280;43754;56.992;24.292;2022-09-06T12:38:07;102465.94;;;17.50;49.08
57948;BME280;43754;56.992;24.292;2022-09-06T12:40:44;102462.56;;;17.71;49.33
57948;BME280;43754;56.992;24.292;2022-09-06T12:43:19;102464.78;;;17.67;49.54
57948;BME280;43754;56.992;24.292;2022-09-06T12:45:51;102463.84;;;17.37;48.61
57948;BME280;43754;56.992;24.292;2022-09-06T12:48:27;102458.50;;;17.29;50.89
57948;BME280;43754;56.992;24.292;2022-09-06T12:51:02;102450.97;;;17.39;50.86
57948;BME280;43754;56.992;24.292;2022-09-06T12:53:34;102452.59;;;17.48;50.44
57948;BME280;43754;56.992;24.292;2022-09-06T12:56:08;102457.94;;;17.57;51.17
57948;BME280;43754;56.992;24.292;2022-09-06T12:58:42;102453.22;;;17.73;50.27
57948;BME280;43754;56.992;24.292;2022-09-06T13:01:18;102448.53;;;17.67;49.76
57948;BME280;43754;56.992;24.292;2022-09-06T13:04:00;102448.06;;;17.41;50.18
57948;BME280;43754;56.992;24.292;2022-09-06T13:06:39;102441.78;;;17.26;49.24
57948;BME280;43754;56.992;24.292;2022-09-06T13:09:14;102435.94;;;17.14;50.61
57948;BME280;43754;56.992;24.292;2022-09-06T13:11:50;102444.94;;;17.29;50.76
57948;BME280;43754;56.992;24.292;2022-09-06T13:14:25;102430.75;;;17.05;49.87
57948;BME280;43754;56.992;24.292;2022-09-06T13:16:57;102431.38;;;16.92;51.25
57948;BME280;43754;56.992;24.292;2022-09-06T13:19:34;102431.72;;;16.89;50.22
57948;BME280;43754;56.992;24.292;2022-09-06T13:22:07;102423.66;;;16.81;51.60
57948;BME280;43754;56.992;24.292;2022-09-06T13:24:43;102428.50;;;16.63;51.10
57948;BME280;43754;56.992;24.292;2022-09-06T13:27:26;102426.81;;;16.70;50.38
57948;BME280;43754;56.992;24.292;2022-09-06T13:30:05;102423.47;;;16.60;50.85
57948;BME280;43754;56.992;24.292;2022-09-06T13:32:47;102418.28;;;16.42;51.86
57948;BME280;43754;56.992;24.292;2022-09-06T13:35:23;102419.56;;;16.54;52.22
57948;BME280;43754;56.992;24.292;2022-09-06T13:38:19;102416.00;;;16.62;52.05
57948;BME280;43754;56.992;24.292;2022-09-06T13:40:51;102412.28;;;16.54;51.13